createdAt,value
2019-01-24T00:01:31.764Z,6.33
2019-01-24T00:04:02.077Z,6.43
2019-01-24T00:07:21.158Z,6.25
2019-01-24T00:09:53.827Z,6.12
2019-01-24T00:16:20.271Z,6.21
2019-01-24T00:19:10.438Z,6.06
2019-01-24T00:22:20.761Z,6.02
2019-01-24T00:25:10.800Z,6.04
2019-01-24T00:27:43.492Z,6.23
2019-01-24T00:30:33.105Z,6.15
2019-01-24T00:33:06.650Z,6.15
2019-01-24T00:35:58.270Z,6.20
2019-01-24T00:38:50.407Z,6.05
2019-01-24T00:41:33.593Z,6.12
2019-01-24T00:47:17.226Z,6.03
2019-01-24T00:50:10.174Z,6.03
2019-01-24T00:52:59.898Z,6.20
2019-01-24T00:55:49.963Z,6.18
2019-01-24T00:58:39.961Z,6.15
2019-01-24T01:01:30.021Z,6.20
2019-01-24T01:04:01.218Z,6.30
2019-01-24T01:06:35.006Z,6.15
2019-01-24T01:09:09.101Z,6.34
2019-01-24T01:11:40.135Z,6.30
2019-01-24T01:17:13.421Z,6.42
2019-01-24T01:20:03.863Z,6.51
2019-01-24T01:22:35.130Z,6.66
2019-01-24T01:25:24.412Z,6.62
2019-01-24T01:27:55.573Z,6.51
2019-01-24T01:30:46.580Z,6.48
2019-01-24T01:33:17.657Z,6.49
2019-01-24T01:36:07.726Z,6.51
2019-01-24T01:38:38.764Z,6.45
2019-01-24T01:41:28.834Z,6.39
2019-01-24T01:43:59.408Z,6.39
2019-01-24T01:49:52.567Z,6.44
2019-01-24T01:52:22.899Z,6.44
2019-01-24T01:54:53.922Z,6.30
2019-01-24T01:57:25.094Z,6.29
2019-01-24T02:02:39.669Z,6.13
2019-01-24T02:05:11.054Z,6.18
2019-01-24T02:07:42.105Z,6.14
2019-01-24T02:10:15.331Z,6.16
2019-01-24T02:12:46.547Z,6.18
2019-01-24T02:18:23.870Z,6.15
2019-01-24T02:20:55.435Z,6.14
2019-01-24T02:24:08.384Z,6.20
2019-01-24T02:29:40.194Z,6.16
2019-01-24T02:32:42.798Z,6.12
2019-01-24T02:35:25.699Z,6.26
2019-01-24T02:38:02.927Z,6.21
2019-01-24T02:40:35.091Z,6.18
2019-01-24T02:43:06.379Z,6.33
2019-01-24T02:49:03.922Z,6.10
2019-01-24T02:51:49.523Z,6.08
2019-01-24T02:54:20.725Z,6.12
2019-01-24T03:03:07.260Z,5.93
2019-01-24T03:05:38.356Z,5.93
2019-01-24T03:11:27.558Z,5.93
2019-01-24T03:20:11.755Z,5.90
2019-01-24T03:23:11.538Z,5.95
2019-01-24T03:26:23.325Z,5.81
2019-01-24T03:31:37.086Z,5.72
2019-01-24T03:34:08.163Z,5.67
2019-01-24T03:37:18.727Z,5.58
2019-01-24T03:42:55.284Z,5.65
2019-01-24T03:48:44.297Z,5.57
2019-01-24T03:51:54.326Z,5.66
2019-01-24T03:54:40.345Z,5.59
2019-01-24T03:57:13.001Z,5.54
2019-01-24T03:59:43.235Z,5.50
2019-01-24T04:05:19.587Z,5.62
2019-01-24T04:07:50.735Z,5.48
2019-01-24T04:10:41.333Z,5.49
2019-01-24T04:13:12.493Z,5.65
2019-01-24T04:15:43.545Z,5.76
2019-01-24T04:18:33.571Z,5.61
2019-01-24T04:21:06.704Z,5.63
2019-01-24T04:23:37.792Z,5.55
2019-01-24T04:26:27.918Z,5.47
2019-01-24T04:28:59.030Z,5.48
2019-01-24T04:31:30.142Z,5.35
2019-01-24T04:34:01.621Z,5.30
2019-01-24T04:36:44.695Z,5.24
2019-01-24T04:39:36.323Z,5.32
2019-01-24T04:42:29.057Z,5.29
2019-01-24T04:47:42.830Z,5.22
2019-01-24T04:50:15.291Z,5.38
2019-01-24T04:53:05.321Z,5.44
2019-01-24T04:55:36.422Z,5.37
2019-01-24T04:58:06.718Z,5.42
2019-01-24T05:00:56.819Z,5.29
2019-01-24T05:03:31.463Z,5.43
2019-01-24T05:06:02.550Z,5.27
2019-01-24T05:08:52.630Z,5.27
2019-01-24T05:11:25.887Z,5.06
2019-01-24T05:17:11.125Z,5.21
2019-01-24T05:19:42.260Z,5.07
2019-01-24T05:22:13.426Z,5.09
2019-01-24T05:25:03.467Z,4.97
2019-01-24T05:30:23.447Z,4.88
2019-01-24T05:32:55.422Z,4.93
2019-01-24T05:35:34.505Z,4.96
2019-01-24T05:38:12.004Z,4.98
2019-01-24T05:41:04.087Z,4.98
2019-01-24T05:43:54.226Z,5.09
2019-01-24T05:49:58.822Z,5.15
2019-01-24T05:52:30.056Z,4.98
2019-01-24T05:55:20.093Z,4.87
2019-01-24T05:58:13.222Z,4.92
2019-01-24T06:00:49.055Z,4.84
2019-01-24T06:03:38.661Z,4.85
2019-01-24T06:06:28.707Z,4.77
2019-01-24T06:08:59.804Z,4.67
2019-01-24T06:11:30.986Z,4.64
2019-01-24T06:14:02.051Z,4.75
2019-01-24T06:16:51.018Z,4.64
2019-01-24T06:19:43.290Z,4.68
2019-01-24T06:22:33.367Z,4.71
2019-01-24T06:25:04.469Z,4.63
2019-01-24T06:30:44.343Z,4.64
2019-01-24T06:37:03.023Z,4.32
2019-01-24T06:39:34.377Z,4.39
2019-01-24T06:42:04.717Z,4.34
2019-01-24T06:44:36.864Z,4.34
2019-01-24T06:53:17.266Z,4.37
2019-01-24T06:55:48.462Z,4.30
2019-01-24T06:58:19.514Z,4.32
2019-01-24T07:03:52.067Z,4.45
2019-01-24T07:06:41.324Z,4.31
2019-01-24T07:09:30.589Z,4.40
2019-01-24T07:12:22.199Z,4.58
2019-01-24T07:15:15.432Z,4.50
2019-01-24T07:17:45.777Z,4.42
2019-01-24T07:20:53.926Z,4.37
2019-01-24T07:26:05.508Z,4.36
2019-01-24T07:28:36.546Z,4.32
2019-01-24T07:31:07.090Z,4.41
2019-01-24T07:33:57.159Z,4.44
2019-01-24T07:36:28.185Z,4.43
2019-01-24T07:39:35.273Z,4.34
2019-01-24T07:42:00.406Z,4.32
2019-01-24T07:44:49.660Z,4.41
2019-01-24T07:53:16.406Z,4.58
2019-01-24T07:55:57.290Z,4.79
2019-01-24T07:58:41.820Z,4.76
2019-01-24T08:01:39.496Z,4.76
2019-01-24T08:04:29.715Z,4.92
2019-01-24T08:07:00.922Z,4.89
2019-01-24T08:09:32.095Z,4.99
2019-01-24T08:12:26.332Z,5.00
2019-01-24T08:15:26.962Z,5.01
2019-01-24T08:17:58.693Z,4.94
2019-01-24T08:20:31.003Z,5.09
2019-01-24T08:26:03.512Z,5.08
2019-01-24T08:28:34.756Z,5.11
2019-01-24T08:31:25.018Z,5.07
2019-01-24T08:34:14.475Z,5.10
2019-01-24T08:36:56.078Z,5.13
2019-01-24T08:39:59.513Z,5.33
2019-01-24T08:42:30.801Z,5.21
2019-01-24T08:51:10.247Z,5.22
2019-01-24T08:53:41.467Z,5.17
2019-01-24T08:59:35.485Z,5.30
2019-01-24T09:02:07.011Z,5.47
2019-01-24T09:04:37.626Z,5.57
2019-01-24T09:07:11.680Z,5.59
2019-01-24T09:13:14.145Z,5.92
2019-01-24T09:28:14.851Z,5.84
2019-01-24T09:36:59.020Z,6.07
2019-01-24T09:39:49.239Z,6.02
2019-01-24T09:42:20.861Z,6.13
2019-01-24T09:44:52.438Z,6.11
2019-01-24T09:47:34.126Z,6.13
2019-01-24T09:50:06.276Z,6.21
2019-01-24T09:53:15.085Z,6.49
2019-01-24T09:58:29.477Z,6.55
2019-01-24T10:01:38.593Z,6.50
2019-01-24T10:07:38.962Z,6.45
2019-01-24T10:13:34.551Z,6.61
2019-01-24T10:16:24.686Z,6.61
2019-01-24T10:21:48.240Z,6.92
2019-01-24T10:24:18.776Z,7.09
2019-01-24T10:36:08.969Z,6.77
2019-01-24T10:38:50.512Z,6.91
2019-01-24T10:41:34.692Z,7.34
2019-01-24T10:43:55.529Z,7.32
2019-01-24T10:46:45.925Z,7.32
2019-01-24T10:52:23.471Z,7.47
2019-01-24T10:55:14.884Z,7.49
2019-01-24T10:57:46.424Z,7.51
2019-01-24T11:00:58.817Z,7.45
2019-01-24T11:03:48.507Z,7.36
2019-01-24T11:06:37.883Z,7.59
2019-01-24T11:09:10.152Z,7.54
2019-01-24T11:11:41.526Z,7.16
2019-01-24T11:14:31.871Z,7.00
2019-01-24T11:17:03.231Z,6.98
2019-01-24T11:22:57.858Z,7.49
2019-01-24T11:25:48.021Z,8.15
2019-01-24T11:28:21.734Z,7.81
2019-01-24T11:31:11.994Z,7.71
2019-01-24T11:33:55.224Z,7.61
2019-01-24T11:36:37.613Z,7.80
2019-01-24T11:39:11.697Z,7.82
2019-01-24T11:42:02.138Z,7.85
2019-01-24T11:44:38.464Z,8.07
2019-01-24T11:47:22.102Z,7.88
2019-01-24T11:49:42.929Z,8.14
2019-01-24T11:52:33.396Z,8.16
2019-01-24T11:58:54.120Z,8.50
2019-01-24T12:01:44.503Z,8.61
2019-01-24T12:04:34.883Z,8.64
2019-01-24T12:07:46.870Z,8.47
2019-01-24T12:10:35.780Z,8.32
2019-01-24T12:13:44.698Z,8.54
2019-01-24T12:16:15.892Z,8.99
2019-01-24T12:18:49.140Z,8.99
2019-01-24T12:21:23.267Z,8.95
2019-01-24T12:24:13.545Z,9.19
2019-01-24T12:30:06.039Z,8.94
2019-01-24T12:38:18.260Z,8.31
2019-01-24T12:43:50.021Z,8.73
2019-01-24T12:46:42.683Z,9.05
2019-01-24T12:49:32.741Z,9.04
2019-01-24T12:52:23.167Z,9.00
2019-01-24T12:55:11.916Z,8.42
2019-01-24T12:58:02.032Z,8.42
2019-01-24T13:00:55.953Z,8.45
2019-01-24T13:03:59.776Z,8.46
2019-01-24T13:06:53.199Z,8.36
2019-01-24T13:12:38.149Z,8.15
2019-01-24T13:15:09.943Z,8.35
2019-01-24T13:17:42.824Z,8.62
2019-01-24T13:20:17.144Z,8.76
2019-01-24T13:22:51.199Z,8.84
2019-01-24T13:25:44.998Z,8.80
2019-01-24T13:28:38.144Z,8.66
2019-01-24T13:31:27.325Z,8.53
2019-01-24T13:33:58.618Z,8.43
2019-01-24T13:37:10.730Z,8.47
2019-01-24T13:40:05.795Z,8.45
2019-01-24T13:42:45.232Z,8.65
2019-01-24T13:51:54.005Z,8.46
2019-01-24T13:54:44.233Z,8.38
2019-01-24T13:57:15.736Z,8.35
2019-01-24T14:00:05.818Z,8.35
2019-01-24T14:05:40.386Z,8.15
2019-01-24T14:08:30.168Z,7.86
2019-01-24T14:11:22.537Z,7.86
2019-01-24T14:14:12.724Z,7.76
2019-01-24T14:16:44.065Z,7.78
2019-01-24T14:19:15.515Z,7.80
2019-01-24T14:21:49.886Z,7.94
2019-01-24T14:24:26.228Z,7.99
2019-01-24T14:26:57.438Z,7.90
2019-01-24T14:29:32.964Z,7.93
2019-01-24T14:32:04.269Z,7.82
2019-01-24T14:35:13.127Z,7.82
2019-01-24T14:40:54.455Z,7.89
2019-01-24T14:43:44.830Z,7.49
2019-01-24T14:52:57.155Z,7.78
2019-01-24T14:55:47.278Z,7.78
2019-01-24T14:58:37.473Z,7.84
2019-01-24T15:01:16.455Z,7.71
2019-01-24T15:03:52.213Z,7.39
2019-01-24T15:06:22.666Z,7.36
2019-01-24T15:08:53.982Z,7.40
2019-01-24T15:11:30.681Z,7.40
2019-01-24T15:14:03.833Z,7.74
2019-01-24T15:16:34.311Z,7.56
2019-01-24T15:25:49.167Z,7.66
2019-01-24T15:30:52.219Z,7.66
2019-01-24T15:34:01.477Z,7.65
2019-01-24T15:39:38.591Z,7.24
2019-01-24T15:42:32.471Z,7.26
2019-01-24T15:45:01.471Z,7.22
2019-01-24T15:47:35.546Z,6.95
2019-01-24T15:50:44.981Z,6.82
2019-01-24T15:53:18.500Z,7.03
2019-01-24T15:56:08.628Z,7.09
2019-01-24T15:58:54.472Z,7.01
2019-01-24T16:07:28.615Z,7.11
2019-01-24T16:10:19.007Z,6.85
2019-01-24T16:13:12.441Z,6.95
2019-01-24T16:16:03.909Z,6.66
2019-01-24T16:21:44.149Z,6.94
2019-01-24T16:24:53.069Z,6.91
2019-01-24T16:27:24.406Z,6.97
2019-01-24T16:32:58.779Z,6.70
2019-01-24T16:35:54.815Z,6.78
2019-01-24T16:38:46.562Z,6.91
2019-01-24T16:41:36.801Z,6.80
2019-01-24T16:44:10.547Z,6.81
2019-01-24T16:46:41.845Z,7.14
2019-01-24T16:49:35.215Z,7.32
2019-01-24T16:52:28.253Z,7.51
2019-01-24T16:54:59.230Z,7.52
2019-01-24T17:04:00.767Z,7.55
2019-01-24T17:07:11.364Z,7.67
2019-01-24T17:09:42.821Z,7.67
2019-01-24T17:17:58.451Z,7.75
2019-01-24T17:23:29.966Z,7.87
2019-01-24T17:26:01.095Z,7.74
2019-01-24T17:28:51.106Z,7.85
2019-01-24T17:34:24.532Z,7.89
2019-01-24T17:36:58.159Z,7.82
2019-01-24T17:39:29.228Z,7.78
2019-01-24T17:42:39.442Z,7.73
2019-01-24T17:48:13.721Z,7.66
2019-01-24T17:50:44.726Z,7.81
2019-01-24T17:53:36.026Z,7.84
2019-01-24T17:56:07.112Z,7.87
2019-01-24T17:58:42.624Z,7.81
2019-01-24T18:01:16.039Z,7.41
2019-01-24T18:06:51.146Z,7.59
2019-01-24T18:09:24.912Z,7.77
2019-01-24T18:14:59.965Z,7.51
2019-01-24T18:17:52.318Z,6.78
2019-01-24T18:20:25.121Z,6.76
2019-01-24T18:26:06.939Z,6.81
2019-01-24T18:28:41.237Z,6.77
2019-01-24T18:31:12.230Z,7.01
2019-01-24T18:34:02.695Z,6.85
2019-01-24T18:36:45.387Z,6.87
2019-01-24T18:42:38.720Z,7.06
2019-01-24T18:48:02.882Z,6.88
2019-01-24T18:54:08.841Z,6.59
2019-01-24T19:03:25.733Z,6.43
2019-01-24T19:06:00.729Z,6.23
2019-01-24T19:12:01.273Z,6.49
2019-01-24T19:17:53.217Z,6.43
2019-01-24T19:20:35.577Z,6.43
2019-01-24T19:27:11.912Z,6.55
2019-01-24T19:36:31.941Z,6.25
2019-01-24T19:39:14.139Z,6.42
2019-01-24T19:41:49.763Z,6.89
2019-01-24T19:44:20.720Z,6.78
2019-01-24T19:46:52.124Z,6.74
2019-01-24T19:52:45.024Z,7.04
2019-01-24T19:55:39.361Z,6.92
2019-01-24T20:04:06.119Z,7.16
2019-01-24T20:06:45.640Z,7.12
2019-01-24T20:09:42.545Z,7.32
2019-01-24T20:22:43.209Z,7.03
2019-01-24T20:24:59.767Z,7.10
2019-01-24T20:27:39.308Z,7.19
2019-01-24T20:36:19.317Z,7.06
2019-01-24T20:39:09.746Z,7.12
2019-01-24T20:42:00.069Z,7.23
2019-01-24T20:53:19.819Z,7.23
2019-01-24T20:55:50.418Z,7.24
2019-01-24T20:59:12.572Z,7.25
2019-01-24T21:02:03.372Z,7.38
2019-01-24T21:04:23.980Z,7.38
2019-01-24T21:09:50.184Z,7.15
2019-01-24T21:12:39.141Z,7.21
2019-01-24T21:18:01.368Z,7.31
2019-01-24T21:20:31.624Z,7.17
2019-01-24T21:24:01.033Z,6.98
2019-01-24T21:26:21.406Z,6.69
2019-01-24T21:29:13.883Z,7.02
2019-01-24T21:31:48.894Z,6.98
2019-01-24T21:37:20.978Z,6.93
2019-01-24T21:40:13.012Z,7.09
2019-01-24T21:42:46.313Z,6.95
2019-01-24T21:45:19.298Z,7.10
2019-01-24T21:47:49.559Z,6.90
2019-01-24T21:50:21.072Z,6.85
2019-01-24T21:53:10.351Z,6.83
2019-01-24T21:59:05.762Z,7.03
2019-01-24T22:01:55.759Z,6.71
2019-01-24T22:04:46.839Z,6.47
2019-01-24T22:10:17.689Z,6.27
2019-01-24T22:12:47.958Z,6.20
2019-01-24T22:15:40.722Z,6.38
2019-01-24T22:18:12.413Z,6.28
2019-01-24T22:24:35.850Z,5.98
2019-01-24T22:27:27.351Z,5.71
2019-01-24T22:29:59.198Z,5.86
2019-01-24T22:33:08.567Z,5.75
2019-01-24T22:39:09.899Z,6.01
2019-01-24T22:41:59.326Z,6.20
2019-01-24T22:44:48.567Z,6.39
2019-01-24T22:53:06.820Z,6.42
2019-01-24T22:55:56.893Z,6.19
2019-01-24T22:58:27.550Z,6.29
2019-01-24T23:01:50.150Z,6.28
2019-01-24T23:07:38.644Z,6.15
2019-01-24T23:10:28.288Z,6.11
2019-01-24T23:13:36.443Z,6.16
2019-01-24T23:16:06.925Z,6.11
2019-01-24T23:18:37.276Z,6.16
2019-01-24T23:21:26.666Z,6.12
2019-01-24T23:24:30.454Z,6.21
2019-01-24T23:27:58.155Z,6.29
2019-01-24T23:34:02.345Z,6.36
2019-01-24T23:39:16.165Z,6.35
2019-01-24T23:42:05.585Z,6.35
2019-01-24T23:44:35.906Z,6.58
2019-01-24T23:47:27.106Z,6.58
2019-01-24T23:50:00.583Z,6.61
2019-01-24T23:52:51.606Z,6.56
2019-01-24T23:55:22.768Z,6.56
2019-01-24T23:58:14.050Z,6.56
